createdAt,value
2018-06-01T00:00:17.436Z,997.91
2018-06-01T00:01:17.444Z,997.91
2018-06-01T00:02:17.442Z,997.91
2018-06-01T00:03:38.455Z,997.89
2018-06-01T00:04:17.452Z,997.88
2018-06-01T00:05:17.457Z,997.86
2018-06-01T00:06:17.459Z,997.87
2018-06-01T00:07:17.462Z,997.83
2018-06-01T00:08:17.470Z,997.82
2018-06-01T00:09:38.485Z,997.82
2018-06-01T00:10:17.478Z,997.83
2018-06-01T00:11:17.479Z,997.79
2018-06-01T00:12:17.483Z,997.81
2018-06-01T00:13:17.488Z,997.80
2018-06-01T00:14:17.492Z,997.82
2018-06-01T00:15:38.513Z,997.83
2018-06-01T00:16:17.500Z,997.86
2018-06-01T00:17:17.503Z,997.79
2018-06-01T00:18:17.507Z,997.77
2018-06-01T00:19:17.510Z,997.80
2018-06-01T00:20:17.525Z,997.81
2018-06-01T00:21:38.531Z,997.77
2018-06-01T00:22:17.525Z,997.76
2018-06-01T00:23:17.533Z,997.73
2018-06-01T00:24:17.529Z,997.75
2018-06-01T00:25:17.537Z,997.73
2018-06-01T00:26:17.539Z,997.72
2018-06-01T00:27:38.641Z,997.73
2018-06-01T00:28:17.554Z,997.76
2018-06-01T00:29:17.558Z,997.74
2018-06-01T00:30:17.555Z,997.77
2018-06-01T00:31:17.559Z,997.77
2018-06-01T00:32:17.562Z,997.78
2018-06-01T00:33:38.578Z,997.81
2018-06-01T00:34:18.000Z,997.76
2018-06-01T00:35:17.587Z,997.85
2018-06-01T00:36:17.584Z,997.82
2018-06-01T00:37:17.585Z,997.84
2018-06-01T00:38:17.589Z,997.86
2018-06-01T00:39:38.600Z,997.83
2018-06-01T00:40:17.620Z,997.88
2018-06-01T00:41:17.602Z,997.86
2018-06-01T00:42:17.609Z,997.84
2018-06-01T00:43:17.605Z,997.87
2018-06-01T00:44:17.619Z,997.85
2018-06-01T00:45:38.621Z,997.84
2018-06-01T00:46:17.616Z,997.85
2018-06-01T00:47:17.628Z,997.84
2018-06-01T00:48:17.628Z,997.88
2018-06-01T00:49:17.629Z,997.84
2018-06-01T00:50:17.637Z,997.87
2018-06-01T00:51:38.647Z,997.87
2018-06-01T00:52:17.642Z,997.92
2018-06-01T00:53:17.644Z,997.91
2018-06-01T00:54:17.646Z,997.97
2018-06-01T00:55:17.653Z,997.95
2018-06-01T00:56:17.660Z,997.96
2018-06-01T00:57:38.669Z,997.99
2018-06-01T00:58:17.674Z,998.00
2018-06-01T00:59:17.667Z,998.03
2018-06-01T01:00:17.671Z,998.04
2018-06-01T01:01:17.676Z,998.02
2018-06-01T01:02:17.673Z,998.04
2018-06-01T01:03:38.695Z,998.02
2018-06-01T01:04:17.684Z,998.04
2018-06-01T01:05:18.397Z,998.04
2018-06-01T01:06:17.693Z,998.08
2018-06-01T01:07:17.696Z,998.04
2018-06-01T01:08:17.701Z,998.09
2018-06-01T01:09:38.714Z,998.11
2018-06-01T01:10:17.710Z,998.11
2018-06-01T01:11:17.712Z,998.13
2018-06-01T01:12:17.718Z,998.13
2018-06-01T01:13:17.719Z,998.09
2018-06-01T01:14:17.727Z,998.10
2018-06-01T01:15:38.739Z,998.13
2018-06-01T01:16:17.730Z,998.11
2018-06-01T01:17:17.733Z,998.14
2018-06-01T01:18:17.741Z,998.17
2018-06-01T01:19:17.743Z,998.16
2018-06-01T01:20:17.749Z,998.16
2018-06-01T01:21:38.763Z,998.19
2018-06-01T01:22:17.756Z,998.18
2018-06-01T01:23:17.756Z,998.19
2018-06-01T01:24:17.762Z,998.18
2018-06-01T01:25:17.768Z,998.19
2018-06-01T01:26:17.768Z,998.18
2018-06-01T01:27:38.782Z,998.19
2018-06-01T01:28:17.776Z,998.19
2018-06-01T01:29:17.783Z,998.17
2018-06-01T01:30:17.783Z,998.14
2018-06-01T01:31:17.787Z,998.18
2018-06-01T01:32:17.790Z,998.15
2018-06-01T01:33:38.804Z,998.15
2018-06-01T01:34:17.799Z,998.15
2018-06-01T01:35:17.806Z,998.11
2018-06-01T01:36:18.782Z,998.13
2018-06-01T01:37:17.817Z,998.13
2018-06-01T01:38:17.817Z,998.12
2018-06-01T01:39:38.827Z,998.09
2018-06-01T01:40:17.822Z,998.10
2018-06-01T01:41:17.823Z,998.05
2018-06-01T01:42:17.836Z,998.05
2018-06-01T01:43:17.832Z,998.04
2018-06-01T01:44:17.831Z,998.02
2018-06-01T01:45:38.848Z,998.05
2018-06-01T01:46:17.847Z,998.02
2018-06-01T01:47:17.850Z,998.02
2018-06-01T01:48:17.849Z,998.06
2018-06-01T01:49:18.031Z,998.03
2018-06-01T01:50:17.857Z,998.03
2018-06-01T01:51:38.871Z,997.97
2018-06-01T01:52:17.863Z,997.93
2018-06-01T01:53:17.872Z,997.93
2018-06-01T01:54:17.879Z,997.93
2018-06-01T01:55:17.900Z,997.91
2018-06-01T01:56:17.879Z,997.88
2018-06-01T01:57:38.891Z,997.93
2018-06-01T01:58:17.888Z,997.92
2018-06-01T01:59:17.893Z,997.93
2018-06-01T02:00:17.895Z,997.90
2018-06-01T02:01:17.911Z,997.92
2018-06-01T02:02:17.901Z,997.88
2018-06-01T02:03:38.914Z,997.89
2018-06-01T02:04:17.908Z,997.91
2018-06-01T02:05:17.915Z,997.92
2018-06-01T02:06:17.912Z,997.95
2018-06-01T02:07:17.917Z,997.92
2018-06-01T02:08:17.922Z,997.94
2018-06-01T02:09:38.937Z,997.97
2018-06-01T02:10:17.933Z,997.95
2018-06-01T02:11:17.933Z,997.91
2018-06-01T02:12:17.934Z,997.92
2018-06-01T02:13:18.002Z,997.99
2018-06-01T02:14:17.944Z,997.99
2018-06-01T02:15:38.958Z,997.97
2018-06-01T02:16:17.949Z,998.00
2018-06-01T02:17:17.956Z,997.98
2018-06-01T02:18:17.961Z,998.01
2018-06-01T02:19:17.963Z,997.98
2018-06-01T02:20:17.987Z,998.02
2018-06-01T02:21:38.988Z,998.02
2018-06-01T02:22:17.970Z,998.03
2018-06-01T02:23:17.974Z,998.00
2018-06-01T02:24:17.981Z,998.00
2018-06-01T02:25:17.983Z,998.02
2018-06-01T02:26:17.986Z,998.02
2018-06-01T02:27:38.999Z,998.01
2018-06-01T02:28:17.999Z,997.98
2018-06-01T02:29:18.005Z,998.00
2018-06-01T02:30:18.004Z,998.05
2018-06-01T02:31:18.005Z,998.03
2018-06-01T02:32:18.016Z,998.08
2018-06-01T02:33:39.023Z,998.08
2018-06-01T02:34:18.022Z,998.09
2018-06-01T02:35:18.022Z,998.10
2018-06-01T02:36:18.023Z,998.13
2018-06-01T02:37:18.032Z,998.09
2018-06-01T02:38:18.031Z,998.12
2018-06-01T02:39:39.045Z,998.14
2018-06-01T02:40:18.037Z,998.13
2018-06-01T02:41:18.048Z,998.15
2018-06-01T02:42:18.049Z,998.11
2018-06-01T02:43:18.054Z,998.15
2018-06-01T02:44:18.060Z,998.14
2018-06-01T02:45:39.064Z,998.13
2018-06-01T02:46:18.060Z,998.09
2018-06-01T02:47:18.067Z,998.09
2018-06-01T02:48:18.065Z,998.07
2018-06-01T02:49:18.073Z,998.07
2018-06-01T02:50:18.068Z,998.03
2018-06-01T02:51:39.086Z,998.04
2018-06-01T02:52:18.078Z,998.05
2018-06-01T02:53:18.083Z,998.05
2018-06-01T02:54:18.090Z,998.09
2018-06-01T02:55:18.085Z,998.11
2018-06-01T02:56:18.098Z,998.20
2018-06-01T02:57:39.147Z,998.27
2018-06-01T02:58:18.101Z,998.29
2018-06-01T02:59:18.100Z,998.43
2018-06-01T03:00:18.119Z,998.46
2018-06-01T03:01:18.109Z,998.55
2018-06-01T03:02:18.115Z,998.60
2018-06-01T03:03:39.136Z,998.62
2018-06-01T03:04:18.120Z,998.59
2018-06-01T03:05:18.124Z,998.67
2018-06-01T03:06:18.124Z,998.66
2018-06-01T03:07:18.132Z,998.66
2018-06-01T03:08:18.130Z,998.66
2018-06-01T03:09:39.144Z,998.70
2018-06-01T03:10:18.138Z,998.65
2018-06-01T03:11:18.147Z,998.62
2018-06-01T03:12:18.148Z,998.60
2018-06-01T03:13:18.149Z,998.58
2018-06-01T03:14:18.157Z,998.60
2018-06-01T03:15:39.169Z,998.60
2018-06-01T03:16:18.158Z,998.57
2018-06-01T03:17:18.163Z,998.53
2018-06-01T03:18:39.183Z,998.53
2018-06-01T03:19:18.170Z,998.53
2018-06-01T03:20:39.189Z,998.49
2018-06-01T03:21:18.176Z,998.48
2018-06-01T03:22:18.179Z,998.47
2018-06-01T03:23:18.183Z,998.48
2018-06-01T03:24:18.186Z,998.48
2018-06-01T03:25:18.187Z,998.51
2018-06-01T03:26:39.208Z,998.54
2018-06-01T03:27:18.200Z,998.54
2018-06-01T03:28:18.203Z,998.56
2018-06-01T03:29:18.203Z,998.62
2018-06-01T03:30:18.203Z,998.66
2018-06-01T03:31:18.213Z,998.65
2018-06-01T03:32:39.221Z,998.60
2018-06-01T03:33:18.215Z,998.57
2018-06-01T03:34:18.222Z,998.60
2018-06-01T03:35:18.223Z,998.61
2018-06-01T03:36:18.227Z,998.65
2018-06-01T03:37:18.234Z,998.63
2018-06-01T03:38:39.325Z,998.65
2018-06-01T03:39:18.318Z,998.65
2018-06-01T03:40:18.245Z,998.64
2018-06-01T03:41:18.244Z,998.71
2018-06-01T03:42:18.249Z,998.69
2018-06-01T03:43:18.256Z,998.71
2018-06-01T03:44:39.267Z,998.70
2018-06-01T03:45:18.258Z,998.70
2018-06-01T03:46:18.261Z,998.69
2018-06-01T03:47:18.269Z,998.72
2018-06-01T03:48:18.278Z,998.75
2018-06-01T03:49:18.275Z,998.75
2018-06-01T03:50:39.286Z,998.78
2018-06-01T03:51:18.283Z,998.81
2018-06-01T03:52:18.284Z,998.81
2018-06-01T03:53:18.288Z,998.78
2018-06-01T03:54:18.292Z,998.75
2018-06-01T03:55:18.297Z,998.74
2018-06-01T03:56:39.308Z,998.75
2018-06-01T03:57:18.302Z,998.75
2018-06-01T03:58:18.305Z,998.75
2018-06-01T03:59:18.308Z,998.78
2018-06-01T04:00:18.317Z,998.84
2018-06-01T04:01:18.316Z,998.85
2018-06-01T04:02:39.385Z,998.88
2018-06-01T04:03:18.325Z,998.92
2018-06-01T04:04:18.332Z,998.92
2018-06-01T04:05:18.331Z,998.92
2018-06-01T04:06:18.336Z,998.95
2018-06-01T04:07:18.338Z,998.94
2018-06-01T04:08:39.492Z,998.98
2018-06-01T04:09:18.356Z,998.98
2018-06-01T04:10:18.666Z,998.95
2018-06-01T04:11:18.356Z,998.96
2018-06-01T04:12:18.356Z,998.95
2018-06-01T04:13:18.363Z,998.97
2018-06-01T04:14:39.490Z,999.01
2018-06-01T04:15:18.386Z,999.01
2018-06-01T04:16:18.376Z,999.03
2018-06-01T04:17:18.375Z,999.05
2018-06-01T04:18:18.383Z,999.06
2018-06-01T04:19:18.380Z,999.11
2018-06-01T04:20:39.406Z,999.12
2018-06-01T04:21:18.389Z,999.11
2018-06-01T04:22:18.391Z,999.11
2018-06-01T04:23:18.394Z,999.17
2018-06-01T04:24:18.402Z,999.22
2018-06-01T04:25:18.404Z,999.22
2018-06-01T04:26:39.461Z,999.21
2018-06-01T04:27:18.415Z,999.27
2018-06-01T04:28:18.411Z,999.26
2018-06-01T04:29:18.421Z,999.25
2018-06-01T04:30:18.418Z,999.24
2018-06-01T04:31:18.425Z,999.31
2018-06-01T04:32:39.458Z,999.30
2018-06-01T04:33:18.431Z,999.35
2018-06-01T04:34:18.437Z,999.35
2018-06-01T04:35:18.439Z,999.41
2018-06-01T04:36:18.445Z,999.43
2018-06-01T04:37:18.445Z,999.46
2018-06-01T04:38:39.531Z,999.46
2018-06-01T04:39:18.452Z,999.50
2018-06-01T04:40:18.453Z,999.50
2018-06-01T04:41:19.113Z,999.55
2018-06-01T04:42:18.465Z,999.52
2018-06-01T04:43:18.471Z,999.59
2018-06-01T04:44:39.534Z,999.58
2018-06-01T04:45:18.480Z,999.54
2018-06-01T04:46:18.479Z,999.61
2018-06-01T04:47:18.481Z,999.56
2018-06-01T04:48:18.484Z,999.55
2018-06-01T04:49:18.557Z,999.54
2018-06-01T04:50:39.547Z,999.51
2018-06-01T04:51:18.494Z,999.48
2018-06-01T04:52:18.503Z,999.50
2018-06-01T04:53:18.506Z,999.49
2018-06-01T04:54:18.505Z,999.44
2018-06-01T04:55:18.509Z,999.43
2018-06-01T04:56:39.569Z,999.39
2018-06-01T04:57:18.519Z,999.39
2018-06-01T04:58:18.522Z,999.40
2018-06-01T04:59:18.522Z,999.38
2018-06-01T05:00:18.526Z,999.39
2018-06-01T05:01:18.532Z,999.39
2018-06-01T05:02:39.595Z,999.41
2018-06-01T05:03:18.536Z,999.40
2018-06-01T05:04:18.538Z,999.41
2018-06-01T05:05:18.543Z,999.33
2018-06-01T05:06:18.548Z,999.31
2018-06-01T05:07:18.556Z,999.29
2018-06-01T05:08:39.637Z,999.28
2018-06-01T05:09:18.559Z,999.29
2018-06-01T05:10:18.560Z,999.28
2018-06-01T05:11:18.565Z,999.25
2018-06-01T05:12:19.509Z,999.21
2018-06-01T05:13:18.574Z,999.18
2018-06-01T05:14:39.618Z,999.19
2018-06-01T05:15:18.583Z,999.17
2018-06-01T05:16:18.581Z,999.09
2018-06-01T05:17:18.585Z,999.05
2018-06-01T05:18:18.598Z,999.02
2018-06-01T05:19:18.595Z,999.08
2018-06-01T05:20:39.615Z,999.12
2018-06-01T05:21:18.599Z,999.18
2018-06-01T05:22:18.650Z,999.19
2018-06-01T05:23:18.607Z,999.22
2018-06-01T05:24:18.611Z,999.23
2018-06-01T05:25:18.616Z,999.22
2018-06-01T05:26:39.643Z,999.21
2018-06-01T05:27:18.627Z,999.21
2018-06-01T05:28:18.635Z,999.23
2018-06-01T05:29:18.633Z,999.29
2018-06-01T05:30:18.630Z,999.31
2018-06-01T05:31:18.633Z,999.37
2018-06-01T05:32:39.668Z,999.44
2018-06-01T05:33:18.645Z,999.52
2018-06-01T05:34:18.649Z,999.55
2018-06-01T05:35:18.647Z,999.60
2018-06-01T05:36:18.652Z,999.61
2018-06-01T05:37:18.655Z,999.62
2018-06-01T05:38:39.734Z,999.62
2018-06-01T05:39:18.666Z,999.63
2018-06-01T05:40:18.664Z,999.60
2018-06-01T05:41:18.670Z,999.53
2018-06-01T05:42:18.680Z,999.51
2018-06-01T05:43:18.674Z,999.48
2018-06-01T05:44:39.704Z,999.44
2018-06-01T05:45:18.685Z,999.41
2018-06-01T05:46:18.686Z,999.43
2018-06-01T05:47:18.708Z,999.38
2018-06-01T05:48:18.693Z,999.40
2018-06-01T05:49:18.701Z,999.37
2018-06-01T05:50:39.708Z,999.30
2018-06-01T05:51:18.701Z,999.32
2018-06-01T05:52:18.727Z,999.32
2018-06-01T05:53:18.711Z,999.32
2018-06-01T05:54:18.713Z,999.36
2018-06-01T05:55:18.719Z,999.28
2018-06-01T05:56:39.731Z,999.34
2018-06-01T05:57:18.722Z,999.32
2018-06-01T05:58:18.731Z,999.32
2018-06-01T05:59:18.735Z,999.33
2018-06-01T06:00:18.745Z,999.34
2018-06-01T06:01:18.736Z,999.35
2018-06-01T06:02:39.751Z,999.40
2018-06-01T06:03:18.752Z,999.38
2018-06-01T06:04:18.765Z,999.34
2018-06-01T06:05:18.753Z,999.36
2018-06-01T06:06:18.757Z,999.33
2018-06-01T06:07:18.761Z,999.36
2018-06-01T06:08:39.834Z,999.33
2018-06-01T06:09:18.792Z,999.32
2018-06-01T06:10:18.771Z,999.33
2018-06-01T06:11:18.773Z,999.34
2018-06-01T06:12:18.784Z,999.36
2018-06-01T06:13:18.789Z,999.34
2018-06-01T06:14:39.842Z,999.35
2018-06-01T06:15:18.785Z,999.38
2018-06-01T06:16:18.789Z,999.44
2018-06-01T06:17:18.792Z,999.45
2018-06-01T06:18:18.813Z,999.49
2018-06-01T06:19:18.797Z,999.46
2018-06-01T06:20:39.820Z,999.47
2018-06-01T06:21:18.807Z,999.40
2018-06-01T06:22:18.813Z,999.43
2018-06-01T06:23:18.812Z,999.44
2018-06-01T06:24:18.825Z,999.42
2018-06-01T06:25:18.818Z,999.41
2018-06-01T06:26:39.836Z,999.39
2018-06-01T06:27:18.829Z,999.43
2018-06-01T06:28:18.834Z,999.44
2018-06-01T06:29:18.838Z,999.54
2018-06-01T06:30:18.843Z,999.56
2018-06-01T06:31:18.877Z,999.62
2018-06-01T06:32:39.856Z,999.62
2018-06-01T06:33:18.850Z,999.64
2018-06-01T06:34:18.851Z,999.63
2018-06-01T06:35:18.856Z,999.65
2018-06-01T06:36:18.861Z,999.65
2018-06-01T06:37:18.863Z,999.66
2018-06-01T06:38:39.946Z,999.68
2018-06-01T06:39:18.869Z,999.70
2018-06-01T06:40:18.879Z,999.71
2018-06-01T06:41:18.883Z,999.76
2018-06-01T06:42:18.877Z,999.84
2018-06-01T06:43:18.882Z,999.85
2018-06-01T06:44:39.899Z,999.81
2018-06-01T06:45:18.886Z,999.85
2018-06-01T06:46:18.891Z,999.85
2018-06-01T06:47:18.899Z,999.92
2018-06-01T06:48:18.956Z,999.89
2018-06-01T06:49:18.920Z,999.96
2018-06-01T06:50:39.914Z,999.93
2018-06-01T06:51:18.909Z,999.95
2018-06-01T06:52:18.911Z,999.94
2018-06-01T06:53:18.917Z,999.96
2018-06-01T06:54:18.918Z,999.98
2018-06-01T06:55:18.956Z,999.94
2018-06-01T06:56:39.936Z,999.92
2018-06-01T06:57:18.930Z,999.91
2018-06-01T06:58:18.934Z,999.87
2018-06-01T06:59:18.935Z,999.85
2018-06-01T07:00:18.941Z,999.84
2018-06-01T07:01:18.947Z,999.79
2018-06-01T07:02:39.969Z,999.77
2018-06-01T07:03:18.950Z,999.77
2018-06-01T07:04:18.952Z,999.75
2018-06-01T07:05:18.961Z,999.80
2018-06-01T07:06:18.966Z,999.78
2018-06-01T07:07:18.966Z,999.81
2018-06-01T07:08:40.051Z,999.87
2018-06-01T07:09:18.997Z,999.96
2018-06-01T07:10:18.995Z,999.93
2018-06-01T07:11:18.986Z,999.98
2018-06-01T07:12:18.986Z,1000.02
2018-06-01T07:13:18.994Z,1000.06
2018-06-01T07:14:40.010Z,1000.12
2018-06-01T07:15:19.053Z,1000.10
2018-06-01T07:16:19.000Z,1000.14
2018-06-01T07:17:19.016Z,1000.18
2018-06-01T07:18:19.010Z,1000.20
2018-06-01T07:19:19.009Z,1000.20
2018-06-01T07:20:40.035Z,1000.20
2018-06-01T07:21:19.018Z,1000.20
2018-06-01T07:22:19.041Z,1000.21
2018-06-01T07:23:19.034Z,1000.25
2018-06-01T07:24:19.028Z,1000.31
2018-06-01T07:25:19.032Z,1000.31
2018-06-01T07:26:40.050Z,1000.30
2018-06-01T07:27:19.062Z,1000.34
2018-06-01T07:28:19.056Z,1000.31
2018-06-01T07:29:19.049Z,1000.27
2018-06-01T07:30:19.062Z,1000.29
2018-06-01T07:31:19.070Z,1000.26
2018-06-01T07:32:40.073Z,1000.29
2018-06-01T07:33:19.114Z,1000.29
2018-06-01T07:34:19.083Z,1000.26
2018-06-01T07:35:19.091Z,1000.27
2018-06-01T07:36:19.076Z,1000.30
2018-06-01T07:37:19.345Z,1000.31
2018-06-01T07:38:40.230Z,1000.31
2018-06-01T07:39:19.134Z,1000.28
2018-06-01T07:40:19.106Z,1000.28
2018-06-01T07:41:19.094Z,1000.30
2018-06-01T07:42:19.098Z,1000.28
2018-06-01T07:43:19.102Z,1000.28
2018-06-01T07:44:40.117Z,1000.24
2018-06-01T07:45:19.118Z,1000.22
2018-06-01T07:46:19.503Z,1000.26
2018-06-01T07:47:19.121Z,1000.29
2018-06-01T07:48:19.132Z,1000.30
2018-06-01T07:49:19.124Z,1000.30
2018-06-01T07:50:40.143Z,1000.26
2018-06-01T07:51:19.132Z,1000.18
2018-06-01T07:52:19.147Z,1000.21
2018-06-01T07:53:19.145Z,1000.22
2018-06-01T07:54:19.162Z,1000.20
2018-06-01T07:55:19.160Z,1000.18
2018-06-01T07:56:40.298Z,1000.19
2018-06-01T07:57:19.172Z,1000.20
2018-06-01T07:58:19.361Z,1000.20
2018-06-01T07:59:19.179Z,1000.23
2018-06-01T08:00:19.178Z,1000.18
2018-06-01T08:01:19.447Z,1000.22
2018-06-01T08:02:40.252Z,1000.19
2018-06-01T08:03:19.204Z,1000.20
2018-06-01T08:04:19.203Z,1000.21
2018-06-01T08:05:19.197Z,1000.22
2018-06-01T08:06:19.231Z,1000.19
2018-06-01T08:07:19.270Z,1000.18
2018-06-01T08:08:40.243Z,1000.15
2018-06-01T08:09:19.225Z,1000.12
2018-06-01T08:10:19.228Z,1000.06
2018-06-01T08:11:19.228Z,1000.06
2018-06-01T08:12:19.239Z,1000.03
2018-06-01T08:13:19.239Z,999.99
2018-06-01T08:14:40.296Z,1000.02
2018-06-01T08:15:20.769Z,1000.00
2018-06-01T08:16:19.264Z,1000.06
2018-06-01T08:17:19.895Z,1000.04
2018-06-01T08:18:19.257Z,1000.03
2018-06-01T08:19:19.268Z,1000.08
2018-06-01T08:20:40.281Z,1000.04
2018-06-01T08:21:19.269Z,1000.02
2018-06-01T08:22:19.272Z,999.98
2018-06-01T08:23:19.281Z,999.94
2018-06-01T08:24:19.285Z,999.96
2018-06-01T08:25:19.291Z,999.91
2018-06-01T08:26:40.308Z,999.86
2018-06-01T08:27:19.299Z,999.89
2018-06-01T08:28:20.179Z,999.84
2018-06-01T08:29:19.321Z,999.86
2018-06-01T08:30:19.315Z,999.90
2018-06-01T08:31:19.320Z,999.88
2018-06-01T08:32:40.346Z,999.96
2018-06-01T08:33:19.327Z,999.93
2018-06-01T08:34:19.337Z,999.91
2018-06-01T08:35:19.340Z,999.92
2018-06-01T08:36:19.381Z,999.92
2018-06-01T08:37:19.350Z,999.89
2018-06-01T08:38:40.445Z,999.90
2018-06-01T08:39:19.428Z,999.90
2018-06-01T08:40:19.364Z,999.86
2018-06-01T08:41:19.371Z,999.82
2018-06-01T08:42:19.379Z,999.75
2018-06-01T08:43:19.378Z,999.71
2018-06-01T08:44:40.396Z,999.68
2018-06-01T08:45:19.398Z,999.64
2018-06-01T08:46:19.458Z,999.62
2018-06-01T08:47:19.446Z,999.66
2018-06-01T08:48:20.298Z,999.60
2018-06-01T08:49:19.417Z,999.64
2018-06-01T08:50:40.433Z,999.65
2018-06-01T08:51:19.423Z,999.64
2018-06-01T08:52:19.432Z,999.72
2018-06-01T08:53:19.445Z,999.68
2018-06-01T08:54:19.445Z,999.71
2018-06-01T08:55:19.455Z,999.71
2018-06-01T08:56:40.463Z,999.73
2018-06-01T08:57:19.461Z,999.72
2018-06-01T08:58:19.476Z,999.68
2018-06-01T08:59:19.474Z,999.69
2018-06-01T09:00:19.481Z,999.67
2018-06-01T09:01:19.493Z,999.67
2018-06-01T09:02:40.504Z,999.61
2018-06-01T09:03:19.502Z,999.66
2018-06-01T09:04:19.510Z,999.67
2018-06-01T09:05:19.524Z,999.65
2018-06-01T09:06:19.545Z,999.65
2018-06-01T09:07:19.533Z,999.68
2018-06-01T09:08:40.671Z,999.67
2018-06-01T09:09:19.556Z,999.66
2018-06-01T09:10:19.633Z,999.65
2018-06-01T09:11:19.572Z,999.67
2018-06-01T09:12:19.582Z,999.64
2018-06-01T09:13:19.593Z,999.63
2018-06-01T09:14:40.623Z,999.62
2018-06-01T09:15:19.609Z,999.60
2018-06-01T09:16:19.620Z,999.62
2018-06-01T09:17:19.633Z,999.58
2018-06-01T09:18:19.638Z,999.57
2018-06-01T09:19:20.647Z,999.54
2018-06-01T09:20:40.666Z,999.54
2018-06-01T09:21:19.662Z,999.52
2018-06-01T09:22:19.669Z,999.54
2018-06-01T09:23:19.681Z,999.54
2018-06-01T09:24:19.691Z,999.50
2018-06-01T09:25:19.711Z,999.54
2018-06-01T09:26:40.822Z,999.51
2018-06-01T09:27:19.713Z,999.52
2018-06-01T09:28:19.756Z,999.54
2018-06-01T09:29:19.759Z,999.54
2018-06-01T09:30:19.748Z,999.51
2018-06-01T09:31:19.749Z,999.52
2018-06-01T09:32:40.785Z,999.53
2018-06-01T09:33:19.785Z,999.53
2018-06-01T09:34:19.837Z,999.60
2018-06-01T09:35:19.797Z,999.58
2018-06-01T09:36:19.800Z,999.62
2018-06-01T09:37:19.818Z,999.65
2018-06-01T09:38:40.859Z,999.65
2018-06-01T09:39:19.845Z,999.64
2018-06-01T09:40:19.855Z,999.65
2018-06-01T09:41:19.860Z,999.63
2018-06-01T09:42:19.863Z,999.62
2018-06-01T09:43:19.881Z,999.64
2018-06-01T09:44:40.901Z,999.62
2018-06-01T09:45:19.898Z,999.63
2018-06-01T09:46:19.907Z,999.65
2018-06-01T09:47:19.916Z,999.61
2018-06-01T09:48:19.931Z,999.68
2018-06-01T09:49:19.937Z,999.62
2018-06-01T09:50:40.955Z,999.65
2018-06-01T09:51:19.953Z,999.65
2018-06-01T09:52:19.966Z,999.63
2018-06-01T09:53:19.973Z,999.66
2018-06-01T09:54:20.390Z,999.63
2018-06-01T09:55:19.993Z,999.62
2018-06-01T09:56:41.014Z,999.59
2018-06-01T09:57:20.023Z,999.61
2018-06-01T09:58:20.057Z,999.63
2018-06-01T09:59:20.063Z,999.62
2018-06-01T10:00:20.036Z,999.64
2018-06-01T10:01:20.053Z,999.60
2018-06-01T10:02:41.106Z,999.65
2018-06-01T10:03:20.080Z,999.62
2018-06-01T10:04:20.107Z,999.61
2018-06-01T10:05:20.134Z,999.66
2018-06-01T10:06:20.117Z,999.63
2018-06-01T10:07:20.117Z,999.64
2018-06-01T10:08:41.172Z,999.60
2018-06-01T10:09:20.339Z,999.59
2018-06-01T10:10:20.156Z,999.60
2018-06-01T10:11:20.162Z,999.55
2018-06-01T10:12:20.164Z,999.53
2018-06-01T10:13:20.184Z,999.53
2018-06-01T10:14:41.209Z,999.49
2018-06-01T10:15:20.215Z,999.49
2018-06-01T10:16:20.229Z,999.50
2018-06-01T10:17:20.227Z,999.48
2018-06-01T10:18:20.240Z,999.48
2018-06-01T10:19:20.258Z,999.55
2018-06-01T10:20:41.275Z,999.46
2018-06-01T10:21:20.273Z,999.46
2018-06-01T10:22:20.287Z,999.46
2018-06-01T10:23:20.302Z,999.47
2018-06-01T10:24:20.311Z,999.49
2018-06-01T10:25:20.332Z,999.45
2018-06-01T10:26:41.358Z,999.45
2018-06-01T10:27:20.355Z,999.43
2018-06-01T10:28:20.367Z,999.41
2018-06-01T10:29:20.382Z,999.38
2018-06-01T10:30:20.392Z,999.36
2018-06-01T10:31:20.409Z,999.35
2018-06-01T10:32:41.437Z,999.34
2018-06-01T10:33:20.442Z,999.30
2018-06-01T10:34:20.448Z,999.33
2018-06-01T10:35:20.464Z,999.33
2018-06-01T10:36:20.485Z,999.28
2018-06-01T10:37:20.497Z,999.26
2018-06-01T10:38:41.603Z,999.30
2018-06-01T10:39:21.360Z,999.31
2018-06-01T10:40:20.533Z,999.26
2018-06-01T10:41:20.551Z,999.27
2018-06-01T10:42:20.615Z,999.28
2018-06-01T10:43:20.887Z,999.28
2018-06-01T10:44:41.994Z,999.25
2018-06-01T10:45:21.013Z,999.27
2018-06-01T10:46:21.100Z,999.29
2018-06-01T10:47:21.349Z,999.27
2018-06-01T10:48:20.658Z,999.31
2018-06-01T10:49:20.704Z,999.31
2018-06-01T10:50:41.794Z,999.27
2018-06-01T10:51:20.713Z,999.30
2018-06-01T10:52:20.724Z,999.29
2018-06-01T10:53:20.834Z,999.29
2018-06-01T10:54:20.800Z,999.29
2018-06-01T10:55:20.764Z,999.29
2018-06-01T10:56:41.794Z,999.35
2018-06-01T10:57:20.905Z,999.27
2018-06-01T10:58:20.819Z,999.28
2018-06-01T10:59:20.825Z,999.29
2018-06-01T11:00:20.847Z,999.30
2018-06-01T11:01:20.861Z,999.29
2018-06-01T11:02:42.085Z,999.30
2018-06-01T11:03:20.894Z,999.33
2018-06-01T11:04:20.902Z,999.31
2018-06-01T11:05:20.916Z,999.29
2018-06-01T11:06:20.932Z,999.33
2018-06-01T11:07:20.949Z,999.30
2018-06-01T11:08:42.088Z,999.25
2018-06-01T11:09:21.026Z,999.27
2018-06-01T11:10:21.024Z,999.25
2018-06-01T11:11:21.050Z,999.21
2018-06-01T11:12:21.044Z,999.25
2018-06-01T11:13:21.049Z,999.22
2018-06-01T11:14:42.074Z,999.20
2018-06-01T11:15:21.323Z,999.20
2018-06-01T11:16:21.098Z,999.19
2018-06-01T11:17:21.129Z,999.15
2018-06-01T11:18:21.152Z,999.20
2018-06-01T11:19:21.136Z,999.23
2018-06-01T11:20:42.173Z,999.25
2018-06-01T11:21:21.244Z,999.29
2018-06-01T11:22:21.238Z,999.27
2018-06-01T11:23:22.359Z,999.22
2018-06-01T11:24:21.281Z,999.26
2018-06-01T11:25:21.230Z,999.28
2018-06-01T11:26:42.300Z,999.25
2018-06-01T11:27:21.289Z,999.25
2018-06-01T11:28:21.282Z,999.28
2018-06-01T11:29:21.303Z,999.27
2018-06-01T11:30:21.319Z,999.21
2018-06-01T11:31:21.340Z,999.22
2018-06-01T11:32:42.374Z,999.22
2018-06-01T11:33:21.370Z,999.23
2018-06-01T11:34:21.388Z,999.23
2018-06-01T11:35:21.403Z,999.21
2018-06-01T11:36:21.426Z,999.24
2018-06-01T11:37:21.443Z,999.25
2018-06-01T11:38:42.490Z,999.25
2018-06-01T11:39:21.476Z,999.23
2018-06-01T11:40:21.494Z,999.25
2018-06-01T11:41:21.511Z,999.26
2018-06-01T11:42:21.555Z,999.25
2018-06-01T11:43:21.547Z,999.25
2018-06-01T11:44:42.586Z,999.27
2018-06-01T11:45:21.587Z,999.27
2018-06-01T11:46:21.630Z,999.30
2018-06-01T11:47:21.872Z,999.30
2018-06-01T11:48:21.952Z,999.30
2018-06-01T11:49:21.682Z,999.32
2018-06-01T11:50:42.697Z,999.33
2018-06-01T11:51:21.743Z,999.28
2018-06-01T11:52:21.717Z,999.26
2018-06-01T11:53:21.758Z,999.24
2018-06-01T11:54:21.753Z,999.25
2018-06-01T11:55:21.778Z,999.17
2018-06-01T11:56:42.801Z,999.19
2018-06-01T11:57:21.846Z,999.18
2018-06-01T11:58:21.885Z,999.18
2018-06-01T11:59:21.858Z,999.18
2018-06-01T12:00:21.860Z,999.22
2018-06-01T12:01:21.877Z,999.17
2018-06-01T12:02:42.918Z,999.10
2018-06-01T12:03:21.916Z,999.12
2018-06-01T12:04:21.935Z,999.10
2018-06-01T12:05:21.951Z,999.10
2018-06-01T12:06:21.981Z,999.07
2018-06-01T12:07:22.002Z,999.11
2018-06-01T12:08:43.104Z,999.10
2018-06-01T12:09:22.355Z,999.08
2018-06-01T12:10:22.049Z,999.05
2018-06-01T12:11:22.064Z,999.07
2018-06-01T12:12:22.432Z,999.02
2018-06-01T12:13:22.113Z,999.02
2018-06-01T12:14:43.128Z,999.03
2018-06-01T12:15:22.150Z,998.99
2018-06-01T12:16:22.166Z,999.00
2018-06-01T12:17:22.172Z,999.00
2018-06-01T12:18:22.188Z,998.96
2018-06-01T12:19:22.205Z,998.98
2018-06-01T12:20:43.234Z,999.00
2018-06-01T12:21:22.238Z,999.02
2018-06-01T12:22:22.256Z,998.99
2018-06-01T12:23:22.272Z,999.06
2018-06-01T12:24:22.291Z,999.02
2018-06-01T12:25:22.314Z,999.00
2018-06-01T12:26:43.338Z,998.98